createdAt,value
2019-04-25T00:02:26.024Z,64.63
2019-04-25T00:04:57.868Z,64.74
2019-04-25T00:07:29.610Z,64.89
2019-04-25T00:10:01.679Z,64.99
2019-04-25T00:12:34.901Z,64.91
2019-04-25T00:15:08.751Z,65.05
2019-04-25T00:17:41.941Z,65.14
2019-04-25T00:20:14.664Z,65.25
2019-04-25T00:22:49.277Z,65.20
2019-04-25T00:25:32.802Z,65.42
2019-04-25T00:28:05.918Z,65.47
2019-04-25T00:30:38.100Z,65.61
2019-04-25T00:33:11.546Z,65.62
2019-04-25T00:35:44.654Z,65.82
2019-04-25T00:38:16.761Z,66.00
2019-04-25T00:40:48.628Z,66.00
2019-04-25T00:43:21.479Z,66.02
2019-04-25T00:45:53.282Z,66.10
2019-04-25T00:48:25.031Z,66.11
2019-04-25T00:50:56.870Z,66.25
2019-04-25T00:53:28.608Z,66.34
2019-04-25T00:56:01.492Z,66.42
2019-04-25T00:58:37.858Z,66.52
2019-04-25T01:01:09.465Z,66.79
2019-04-25T01:03:43.316Z,66.91
2019-04-25T01:06:15.010Z,67.09
2019-04-25T01:08:47.713Z,67.16
2019-04-25T01:11:21.526Z,67.21
2019-04-25T01:13:54.431Z,67.38
2019-04-25T01:16:27.370Z,67.46
2019-04-25T01:18:59.099Z,67.50
2019-04-25T01:21:30.909Z,67.55
2019-04-25T01:24:04.299Z,67.61
2019-04-25T01:26:36.141Z,67.99
2019-04-25T01:29:08.949Z,67.88
2019-04-25T01:31:40.659Z,68.08
2019-04-25T01:34:14.340Z,68.36
2019-04-25T01:36:55.032Z,68.36
2019-04-25T01:39:44.297Z,68.24
2019-04-25T01:42:17.575Z,68.60
2019-04-25T01:44:51.624Z,68.56
2019-04-25T01:47:24.515Z,68.73
2019-04-25T01:49:56.680Z,69.08
2019-04-25T01:52:28.773Z,69.35
2019-04-25T01:55:00.516Z,69.36
2019-04-25T01:57:33.723Z,69.33
2019-04-25T02:00:09.881Z,69.45
2019-04-25T02:02:43.506Z,69.63
2019-04-25T02:05:16.052Z,69.91
2019-04-25T02:07:47.595Z,69.89
2019-04-25T02:10:20.107Z,69.94
2019-04-25T02:12:55.179Z,69.96
2019-04-25T02:15:28.461Z,70.08
2019-04-25T02:18:00.379Z,70.19
2019-04-25T02:20:33.944Z,70.11
2019-04-25T02:23:06.192Z,70.15
2019-04-25T02:25:38.235Z,70.11
2019-04-25T02:28:09.997Z,70.17
2019-04-25T02:30:41.738Z,70.20
2019-04-25T02:33:14.239Z,70.28
2019-04-25T02:35:46.912Z,70.22
2019-04-25T02:38:18.995Z,70.24
2019-04-25T02:40:50.907Z,70.31
2019-04-25T02:43:23.940Z,70.40
2019-04-25T02:46:15.218Z,70.29
2019-04-25T02:49:09.560Z,70.37
2019-04-25T02:51:42.282Z,70.61
2019-04-25T02:54:14.163Z,70.61
2019-04-25T02:56:46.755Z,70.60
2019-04-25T02:59:18.765Z,70.73
2019-04-25T03:01:50.507Z,70.87
2019-04-25T03:04:24.075Z,71.01
2019-04-25T03:06:57.152Z,70.99
2019-04-25T03:09:28.821Z,71.48
2019-04-25T03:12:01.767Z,72.33
2019-04-25T03:14:35.200Z,72.60
2019-04-25T03:17:09.838Z,73.12
2019-04-25T03:19:54.336Z,73.61
2019-04-25T03:22:30.445Z,74.37
2019-04-25T03:25:04.514Z,74.74
2019-04-25T03:27:35.442Z,74.81
2019-04-25T03:30:13.654Z,74.91
2019-04-25T03:32:45.134Z,74.69
2019-04-25T03:35:16.545Z,74.06
2019-04-25T03:37:48.106Z,74.61
2019-04-25T03:40:19.910Z,74.87
2019-04-25T03:42:51.463Z,75.19
2019-04-25T03:45:23.723Z,74.98
2019-04-25T03:47:55.638Z,75.61
2019-04-25T03:50:27.443Z,75.34
2019-04-25T03:52:59.255Z,76.22
2019-04-25T03:55:35.562Z,75.88
2019-04-25T03:58:09.404Z,75.57
2019-04-25T04:00:39.684Z,75.95
2019-04-25T04:03:11.508Z,76.23
2019-04-25T04:05:44.171Z,76.22
2019-04-25T04:08:15.927Z,76.16
2019-04-25T04:10:47.626Z,75.91
2019-04-25T04:13:19.382Z,75.35
2019-04-25T04:15:51.114Z,75.01
2019-04-25T04:18:40.566Z,74.58
2019-04-25T04:21:20.307Z,74.84
2019-04-25T04:23:54.216Z,74.26
2019-04-25T04:26:27.051Z,74.13
2019-04-25T04:28:58.796Z,74.33
2019-04-25T04:31:33.473Z,73.75
2019-04-25T04:34:05.365Z,72.97
2019-04-25T04:36:37.098Z,72.31
2019-04-25T04:39:09.970Z,73.16
2019-04-25T04:41:43.327Z,72.04
2019-04-25T04:44:16.539Z,70.99
2019-04-25T04:46:48.189Z,68.85
2019-04-25T04:49:21.933Z,59.70
2019-04-25T04:51:54.136Z,54.16
2019-04-25T04:54:25.896Z,50.76
2019-04-25T04:56:57.645Z,46.32
2019-04-25T04:59:29.396Z,44.42
2019-04-25T05:02:03.342Z,42.19
2019-04-25T05:04:53.529Z,39.53
2019-04-25T05:07:39.189Z,38.05
2019-04-25T05:10:11.371Z,35.36
2019-04-25T05:12:43.764Z,35.11
2019-04-25T05:15:16.923Z,33.62
2019-04-25T05:17:49.535Z,32.04
2019-04-25T05:20:22.269Z,31.31
2019-04-25T05:22:55.036Z,30.42
2019-04-25T05:25:26.931Z,29.31
2019-04-25T05:28:02.893Z,29.43
2019-04-25T05:30:40.092Z,28.15
2019-04-25T05:33:11.795Z,28.65
2019-04-25T05:35:44.050Z,27.78
2019-04-25T05:38:17.684Z,27.78
2019-04-25T05:40:54.078Z,28.32
2019-04-25T05:43:27.509Z,27.24
2019-04-25T05:45:59.960Z,27.81
2019-04-25T05:48:31.806Z,27.58
2019-04-25T05:51:03.963Z,29.36
2019-04-25T05:53:36.213Z,28.12
2019-04-25T05:56:07.954Z,27.87
2019-04-25T05:58:39.801Z,28.44
2019-04-25T06:01:13.315Z,27.47
2019-04-25T06:03:44.799Z,28.72
2019-04-25T06:06:17.479Z,29.54
2019-04-25T06:09:04.135Z,30.32
2019-04-25T06:11:43.805Z,30.55
2019-04-25T06:14:18.257Z,29.93
2019-04-25T06:16:53.536Z,29.76
2019-04-25T06:19:43.512Z,30.62
2019-04-25T06:22:24.216Z,30.19
2019-04-25T06:24:57.673Z,30.00
2019-04-25T06:27:35.084Z,30.05
2019-04-25T06:30:10.705Z,28.74
2019-04-25T06:32:43.744Z,29.86
2019-04-25T06:35:15.702Z,29.86
2019-04-25T06:37:47.489Z,29.24
2019-04-25T06:40:20.561Z,28.22
2019-04-25T06:42:54.940Z,28.54
2019-04-25T06:45:34.449Z,29.26
2019-04-25T06:48:08.373Z,29.01
2019-04-25T06:50:40.009Z,29.92
2019-04-25T06:53:13.542Z,30.58
2019-04-25T06:55:45.110Z,32.33
2019-04-25T06:58:16.857Z,32.90
2019-04-25T07:00:57.983Z,32.07
2019-04-25T07:03:22.807Z,32.40
2019-04-25T07:05:54.864Z,32.53
2019-04-25T07:08:26.925Z,33.74
2019-04-25T07:10:59.651Z,34.10
2019-04-25T07:13:34.180Z,34.99
2019-04-25T07:16:04.751Z,34.47
2019-04-25T07:18:37.386Z,34.35
2019-04-25T07:21:09.091Z,34.42
2019-04-25T07:23:41.240Z,34.22
2019-04-25T07:26:16.362Z,33.15
2019-04-25T07:29:05.880Z,33.78
2019-04-25T07:31:44.268Z,34.21
2019-04-25T07:34:17.810Z,32.92
2019-04-25T07:36:49.506Z,33.32
2019-04-25T07:39:23.536Z,32.45
2019-04-25T07:41:55.246Z,33.83
2019-04-25T07:44:38.137Z,33.63
2019-04-25T07:47:01.487Z,34.67
2019-04-25T07:49:34.562Z,32.74
2019-04-25T07:52:08.213Z,33.18
2019-04-25T07:54:40.739Z,33.61
2019-04-25T07:57:13.538Z,32.47
2019-04-25T07:59:45.749Z,32.42
2019-04-25T08:02:17.869Z,32.57
2019-04-25T08:04:50.847Z,33.90
2019-04-25T08:07:23.740Z,32.77
2019-04-25T08:09:55.852Z,33.57
2019-04-25T08:12:28.359Z,33.10
2019-04-25T08:15:04.928Z,34.44
2019-04-25T08:17:45.589Z,34.26
2019-04-25T08:20:18.178Z,33.23
2019-04-25T08:22:56.559Z,32.16
2019-04-25T08:25:24.853Z,32.62
2019-04-25T08:27:56.632Z,33.57
2019-04-25T08:30:29.755Z,34.71
2019-04-25T08:33:01.781Z,34.71
2019-04-25T08:35:35.482Z,34.65
2019-04-25T08:38:08.259Z,35.12
2019-04-25T08:40:40.437Z,35.71
2019-04-25T08:43:12.380Z,35.77
2019-04-25T08:45:44.324Z,37.33
2019-04-25T08:48:16.177Z,37.31
2019-04-25T08:51:01.517Z,35.71
2019-04-25T08:53:41.003Z,35.83
2019-04-25T08:56:15.021Z,36.25
2019-04-25T08:58:46.745Z,36.39
2019-04-25T09:01:18.367Z,37.08
2019-04-25T09:03:57.555Z,37.72
2019-04-25T09:06:29.231Z,37.88
2019-04-25T09:09:01.369Z,36.70
2019-04-25T09:11:37.966Z,36.84
2019-04-25T09:14:08.522Z,37.11
2019-04-25T09:16:40.278Z,37.63
2019-04-25T09:19:12.026Z,36.07
2019-04-25T09:21:48.125Z,36.66
2019-04-25T09:24:17.423Z,36.50
2019-04-25T09:26:50.097Z,37.49
2019-04-25T09:29:23.360Z,38.82
2019-04-25T09:31:55.699Z,37.43
2019-04-25T09:34:27.452Z,36.62
2019-04-25T09:36:59.204Z,38.04
2019-04-25T09:39:38.999Z,37.56
2019-04-25T09:42:10.833Z,37.81
2019-04-25T09:44:53.703Z,37.46
2019-04-25T09:47:25.784Z,37.40
2019-04-25T09:49:58.101Z,36.32
2019-04-25T09:52:29.762Z,37.11
2019-04-25T09:55:06.055Z,37.10
2019-04-25T09:57:43.445Z,37.59
2019-04-25T10:00:34.469Z,38.17
2019-04-25T10:03:06.914Z,37.28
2019-04-25T10:05:38.792Z,36.12
2019-04-25T10:08:10.713Z,36.25
2019-04-25T10:10:43.055Z,37.99
2019-04-25T10:13:14.812Z,37.58
2019-04-25T10:16:05.072Z,36.60
2019-04-25T10:18:39.165Z,36.91
2019-04-25T10:21:14.291Z,36.51
2019-04-25T10:23:48.261Z,36.76
2019-04-25T10:26:22.932Z,37.37
2019-04-25T10:28:54.570Z,37.10
2019-04-25T10:31:26.363Z,37.10
2019-04-25T10:33:58.101Z,36.98
2019-04-25T10:36:30.016Z,37.58
2019-04-25T10:39:07.898Z,36.06
2019-04-25T10:41:36.739Z,36.82
2019-04-25T10:44:09.715Z,36.22
2019-04-25T10:46:41.789Z,38.76
2019-04-25T10:49:14.520Z,36.59
2019-04-25T10:51:46.556Z,35.68
2019-04-25T10:54:18.319Z,36.64
2019-04-25T10:56:50.091Z,36.08
2019-04-25T10:59:23.477Z,35.71
2019-04-25T11:01:55.443Z,36.67
2019-04-25T11:04:28.831Z,36.88
2019-04-25T11:07:00.494Z,36.99
2019-04-25T11:09:34.050Z,37.42
2019-04-25T11:12:08.702Z,36.71
2019-04-25T11:14:40.930Z,35.20
2019-04-25T11:17:15.300Z,36.44
2019-04-25T11:19:46.826Z,36.48
2019-04-25T11:22:18.745Z,35.71
2019-04-25T11:24:50.745Z,36.72
2019-04-25T11:27:27.401Z,37.04
2019-04-25T11:30:09.219Z,35.93
2019-04-25T11:32:33.907Z,36.72
2019-04-25T11:35:07.798Z,36.42
2019-04-25T11:37:39.346Z,36.27
2019-04-25T11:40:16.650Z,36.83
2019-04-25T11:42:48.388Z,37.15
2019-04-25T11:45:20.585Z,36.88
2019-04-25T11:47:53.833Z,37.42
2019-04-25T11:50:26.591Z,36.30
2019-04-25T11:52:58.854Z,36.27
2019-04-25T11:55:30.676Z,37.43
2019-04-25T11:58:03.704Z,37.69
2019-04-25T12:00:36.155Z,37.18
2019-04-25T12:03:08.497Z,36.73
2019-04-25T12:05:40.160Z,37.61
2019-04-25T12:08:13.446Z,37.18
2019-04-25T12:10:46.571Z,36.84
2019-04-25T12:13:18.766Z,37.04
2019-04-25T12:15:50.525Z,37.96
2019-04-25T12:18:22.265Z,35.69
2019-04-25T12:20:55.429Z,35.18
2019-04-25T12:23:27.362Z,36.88
2019-04-25T12:25:59.104Z,38.45
2019-04-25T12:28:31.720Z,36.83
2019-04-25T12:31:03.572Z,38.10
2019-04-25T12:33:35.322Z,36.55
2019-04-25T12:36:07.330Z,36.96
2019-04-25T12:38:39.077Z,36.62
2019-04-25T12:41:10.824Z,35.62
2019-04-25T12:43:45.643Z,36.74
2019-04-25T12:46:22.343Z,36.33
2019-04-25T12:48:54.121Z,35.27
2019-04-25T12:51:25.859Z,36.17
2019-04-25T12:53:58.029Z,36.78
2019-04-25T12:56:30.018Z,37.76
2019-04-25T12:59:01.798Z,37.31
2019-04-25T13:01:33.543Z,37.35
2019-04-25T13:04:06.354Z,36.68
2019-04-25T13:06:37.901Z,35.88
2019-04-25T13:09:10.867Z,35.39
2019-04-25T13:11:43.456Z,35.50
2019-04-25T13:14:17.519Z,34.91
2019-04-25T13:16:49.603Z,34.41
2019-04-25T13:19:24.649Z,34.11
2019-04-25T13:21:54.617Z,34.58
2019-04-25T13:24:26.472Z,34.27
2019-04-25T13:27:03.605Z,34.40
2019-04-25T13:29:53.842Z,34.61
2019-04-25T13:32:25.455Z,34.56
2019-04-25T13:34:58.782Z,34.75
2019-04-25T13:37:30.552Z,34.34
2019-04-25T13:40:02.207Z,34.05
2019-04-25T13:42:34.227Z,34.94
2019-04-25T13:45:09.105Z,35.20
2019-04-25T13:47:42.380Z,36.10
2019-04-25T13:50:15.477Z,36.16
2019-04-25T13:52:47.161Z,37.06
2019-04-25T13:55:18.924Z,36.41
2019-04-25T13:57:50.677Z,36.41
2019-04-25T14:00:26.056Z,36.77
2019-04-25T14:02:58.573Z,37.17
2019-04-25T14:05:30.581Z,37.02
2019-04-25T14:08:02.242Z,36.49
2019-04-25T14:10:34.579Z,37.72
2019-04-25T14:13:07.189Z,37.04
2019-04-25T14:15:43.119Z,37.32
2019-04-25T14:18:20.017Z,37.08
2019-04-25T14:20:53.488Z,36.82
2019-04-25T14:23:25.761Z,37.09
2019-04-25T14:25:57.481Z,37.37
2019-04-25T14:28:31.557Z,36.63
2019-04-25T14:31:03.329Z,36.51
2019-04-25T14:33:35.457Z,36.28
2019-04-25T14:36:07.291Z,36.50
2019-04-25T14:38:39.048Z,35.84
2019-04-25T14:41:10.788Z,35.87
2019-04-25T14:43:42.534Z,36.37
2019-04-25T14:46:14.292Z,37.14
2019-04-25T14:48:46.064Z,36.20
2019-04-25T14:51:17.810Z,35.43
2019-04-25T14:53:50.034Z,35.66
2019-04-25T14:56:23.710Z,35.53
2019-04-25T14:58:55.542Z,35.97
2019-04-25T15:01:28.094Z,36.61
2019-04-25T15:04:00.082Z,35.79
2019-04-25T15:06:32.047Z,36.13
2019-04-25T15:09:05.250Z,36.54
2019-04-25T15:11:37.765Z,36.71
2019-04-25T15:14:09.525Z,36.20
2019-04-25T15:16:41.260Z,36.27
2019-04-25T15:19:13.087Z,37.14
2019-04-25T15:21:44.726Z,35.93
2019-04-25T15:24:16.571Z,36.28
2019-04-25T15:26:48.327Z,36.00
2019-04-25T15:29:20.070Z,36.49
2019-04-25T15:31:56.157Z,35.60
2019-04-25T15:34:28.072Z,36.03
2019-04-25T15:37:07.427Z,36.32
2019-04-25T15:39:42.038Z,36.44
2019-04-25T15:42:15.343Z,37.20
2019-04-25T15:44:58.368Z,37.22
2019-04-25T15:47:31.900Z,37.74
2019-04-25T15:50:06.123Z,38.28
2019-04-25T15:52:39.134Z,38.40
2019-04-25T15:55:10.896Z,38.46
2019-04-25T15:57:45.724Z,38.84
2019-04-25T16:00:20.949Z,38.65
2019-04-25T16:02:52.816Z,38.73
2019-04-25T16:05:26.451Z,38.57
2019-04-25T16:07:58.632Z,38.85
2019-04-25T16:10:30.511Z,38.94
2019-04-25T16:13:02.472Z,38.35
2019-04-25T16:15:34.120Z,38.59
2019-04-25T16:18:07.585Z,38.49
2019-04-25T16:20:57.521Z,38.88
2019-04-25T16:23:30.252Z,38.93
2019-04-25T16:26:02.326Z,39.33
2019-04-25T16:28:34.123Z,39.05
2019-04-25T16:31:12.362Z,39.44
2019-04-25T16:33:49.993Z,39.60
2019-04-25T16:36:24.004Z,39.54
2019-04-25T16:38:58.714Z,39.67
2019-04-25T16:41:31.989Z,39.75
2019-04-25T16:44:14.846Z,39.93
2019-04-25T16:46:46.503Z,40.29
2019-04-25T16:49:23.238Z,40.08
2019-04-25T16:51:57.600Z,40.25
2019-04-25T16:54:30.401Z,40.60
2019-04-25T16:57:08.500Z,40.65
2019-04-25T16:59:45.043Z,40.51
2019-04-25T17:02:32.500Z,40.88
2019-04-25T17:04:55.678Z,40.96
2019-04-25T17:07:30.326Z,40.73
2019-04-25T17:10:03.516Z,40.98
2019-04-25T17:12:38.463Z,41.15
2019-04-25T17:15:20.032Z,41.41
2019-04-25T17:18:09.861Z,41.89
2019-04-25T17:20:58.792Z,41.81
2019-04-25T17:23:34.430Z,41.68
2019-04-25T17:26:15.172Z,42.00
2019-04-25T17:28:56.504Z,42.61
2019-04-25T17:31:39.664Z,42.93
2019-04-25T17:34:25.525Z,43.42
2019-04-25T17:37:00.336Z,43.57
2019-04-25T17:39:42.227Z,44.12
2019-04-25T17:42:18.693Z,44.05
2019-04-25T17:44:57.722Z,45.69
2019-04-25T17:47:30.657Z,49.55
2019-04-25T17:50:06.578Z,51.29
2019-04-25T17:52:38.346Z,52.36
2019-04-25T17:55:10.469Z,53.01
2019-04-25T17:57:43.629Z,53.85
2019-04-25T18:00:22.785Z,54.38
2019-04-25T18:02:59.149Z,55.53
2019-04-25T18:05:34.158Z,56.00
2019-04-25T18:08:15.007Z,56.68
2019-04-25T18:10:54.554Z,57.63
2019-04-25T18:13:31.215Z,57.46
2019-04-25T18:16:24.668Z,58.83
2019-04-25T18:19:14.697Z,59.18
2019-04-25T18:21:49.043Z,58.97
2019-04-25T18:24:29.868Z,60.08
2019-04-25T18:27:22.909Z,60.93
2019-04-25T18:29:54.476Z,61.10
2019-04-25T18:32:27.908Z,61.92
2019-04-25T18:35:01.495Z,62.10
2019-04-25T18:37:37.166Z,62.31
2019-04-25T18:40:21.043Z,62.71
2019-04-25T18:43:05.269Z,63.32
2019-04-25T18:45:40.282Z,63.78
2019-04-25T18:48:12.217Z,64.33
2019-04-25T18:50:44.985Z,64.88
2019-04-25T18:53:34.721Z,64.94
2019-04-25T18:56:09.386Z,66.22
2019-04-25T18:58:43.986Z,66.44
2019-04-25T19:01:18.689Z,66.52
2019-04-25T19:03:54.922Z,66.83
2019-04-25T19:06:27.760Z,66.73
2019-04-25T19:08:59.536Z,67.07
2019-04-25T19:11:31.763Z,67.66
2019-04-25T19:14:03.554Z,68.06
2019-04-25T19:16:35.309Z,68.37
2019-04-25T19:19:07.399Z,68.74
2019-04-25T19:21:40.227Z,69.44
2019-04-25T19:24:12.414Z,70.02
2019-04-25T19:26:44.780Z,69.61
2019-04-25T19:29:18.652Z,69.92
2019-04-25T19:31:53.297Z,69.60
2019-04-25T19:34:30.596Z,69.45
2019-04-25T19:37:04.649Z,68.96
2019-04-25T19:39:40.558Z,68.97
2019-04-25T19:42:19.634Z,69.93
2019-04-25T19:44:51.432Z,70.06
2019-04-25T19:47:24.538Z,70.58
2019-04-25T19:49:58.246Z,72.01
2019-04-25T19:52:30.031Z,72.10
2019-04-25T19:55:01.890Z,72.63
2019-04-25T19:57:33.842Z,71.98
2019-04-25T20:00:07.776Z,72.42
2019-04-25T20:02:47.439Z,72.72
2019-04-25T20:05:20.926Z,72.61
2019-04-25T20:07:58.510Z,72.86
2019-04-25T20:10:44.155Z,72.99
2019-04-25T20:13:17.238Z,74.06
2019-04-25T20:15:49.568Z,74.09
2019-04-25T20:18:21.425Z,74.57
2019-04-25T20:20:54.089Z,74.71
2019-04-25T20:23:25.832Z,75.05
2019-04-25T20:25:57.653Z,74.63
2019-04-25T20:28:29.315Z,74.95
2019-04-25T20:31:01.356Z,76.37
2019-04-25T20:33:33.208Z,77.04
2019-04-25T20:36:17.023Z,77.24
2019-04-25T20:38:38.843Z,77.28
2019-04-25T20:41:14.057Z,77.04
2019-04-25T20:43:48.891Z,77.36
2019-04-25T20:46:20.560Z,76.70
2019-04-25T20:48:52.350Z,76.54
2019-04-25T20:51:26.837Z,76.55
2019-04-25T20:53:59.815Z,76.90
2019-04-25T20:56:31.629Z,78.26
2019-04-25T20:59:04.381Z,79.06
2019-04-25T21:01:36.217Z,78.56
2019-04-25T21:04:13.227Z,79.39
2019-04-25T21:06:43.291Z,79.21
2019-04-25T21:09:16.084Z,79.18
2019-04-25T21:11:53.319Z,78.45
2019-04-25T21:14:36.003Z,78.54
2019-04-25T21:17:23.258Z,78.41
2019-04-25T21:19:58.439Z,79.35
2019-04-25T21:22:36.736Z,80.16
2019-04-25T21:25:13.240Z,80.85
2019-04-25T21:27:44.858Z,80.11
2019-04-25T21:30:16.707Z,80.96
2019-04-25T21:32:50.534Z,81.83
2019-04-25T21:35:23.448Z,81.53
2019-04-25T21:37:57.463Z,82.14
2019-04-25T21:40:31.194Z,81.57
2019-04-25T21:43:10.714Z,81.73
2019-04-25T21:45:42.841Z,81.06
2019-04-25T21:48:14.965Z,80.94
2019-04-25T21:50:47.291Z,80.57
2019-04-25T21:53:19.036Z,80.60
2019-04-25T21:55:51.162Z,79.44
2019-04-25T21:58:23.480Z,80.02
2019-04-25T22:00:56.544Z,82.11
2019-04-25T22:03:31.730Z,82.44
2019-04-25T22:06:04.991Z,81.51
2019-04-25T22:08:37.045Z,81.14
2019-04-25T22:11:11.883Z,81.52
2019-04-25T22:13:44.514Z,81.77
2019-04-25T22:16:16.303Z,82.26
2019-04-25T22:18:48.922Z,82.52
2019-04-25T22:21:23.319Z,82.27
2019-04-25T22:24:05.975Z,82.92
2019-04-25T22:26:28.806Z,82.81
2019-04-25T22:29:01.282Z,83.46
2019-04-25T22:31:37.280Z,82.88
2019-04-25T22:34:15.294Z,82.58
2019-04-25T22:36:47.513Z,82.66
2019-04-25T22:39:19.284Z,83.17
2019-04-25T22:41:51.465Z,82.95
2019-04-25T22:44:23.554Z,83.17
2019-04-25T22:46:57.142Z,83.72
2019-04-25T22:49:28.793Z,83.18
2019-04-25T22:52:01.648Z,83.52
2019-04-25T22:54:33.847Z,83.14
2019-04-25T22:57:06.331Z,83.21
2019-04-25T22:59:38.614Z,82.41
2019-04-25T23:02:14.688Z,83.07
2019-04-25T23:05:04.780Z,84.65
2019-04-25T23:07:27.366Z,85.31
2019-04-25T23:09:59.483Z,85.17
2019-04-25T23:12:31.804Z,84.62
2019-04-25T23:15:05.089Z,84.19
2019-04-25T23:17:37.507Z,84.16
2019-04-25T23:20:10.210Z,83.97
2019-04-25T23:22:41.995Z,83.69
2019-04-25T23:25:16.534Z,83.03
2019-04-25T23:27:47.951Z,82.83
2019-04-25T23:30:22.980Z,83.31
2019-04-25T23:32:54.822Z,84.25
2019-04-25T23:35:30.295Z,84.01
2019-04-25T23:38:00.201Z,83.15
2019-04-25T23:40:31.942Z,82.81
2019-04-25T23:43:05.204Z,83.10
2019-04-25T23:45:37.292Z,82.63
2019-04-25T23:48:10.289Z,84.03
2019-04-25T23:50:42.033Z,84.33
2019-04-25T23:53:14.931Z,84.93
2019-04-25T23:55:46.801Z,85.00
2019-04-25T23:58:18.540Z,84.58
